Time;durP1;ratioP1;P1;durP2;ratioP2;P2;SDS_P1;SDS_P2;PMS_P1;PMS_P2;Temp;Humidity;BMP_temperature;BMP_pressure;BME280_temperature;BME280_humidity;BME280_pressure;Samples;Min_cycle;Max_cycle;Signal;HPM_P1;HPM_P2
2022/05/14 00:00:25;;;;;;;5.00;4.10;;;13.20;99.90;;;;;;5067282;28;20455;-42
2022/05/14 00:02:51;;;;;;;7.70;4.23;;;13.20;99.90;;;;;;5065025;28;20420;-42
2022/05/14 00:05:19;;;;;;;4.73;4.17;;;13.10;99.90;;;;;;5071069;28;21077;-42
2022/05/14 00:07:46;;;;;;;3.60;3.17;;;13.10;99.90;;;;;;5070897;28;20797;-43
2022/05/14 00:10:12;;;;;;;6.70;4.90;;;13.10;99.90;;;;;;5070257;28;20948;-43
2022/05/14 00:15:22;;;;;;;4.80;4.10;;;13.00;99.90;;;;;;5067531;28;20552;-43
2022/05/14 00:17:48;;;;;;;5.43;4.40;;;13.00;99.90;;;;;;5060930;28;20431;-43
2022/05/14 00:20:15;;;;;;;5.87;4.70;;;13.00;99.90;;;;;;5070007;28;20288;-43
2022/05/14 00:22:41;;;;;;;5.90;4.27;;;13.00;99.90;;;;;;5070523;28;20230;-42
2022/05/14 00:25:07;;;;;;;7.30;4.13;;;12.90;99.90;;;;;;5070443;28;20846;-43
2022/05/14 00:27:33;;;;;;;5.80;4.50;;;12.90;99.90;;;;;;5070030;28;20435;-43
2022/05/14 00:30:00;;;;;;;4.10;3.70;;;12.80;99.90;;;;;;5069911;28;20438;-43
2022/05/14 00:32:26;;;;;;;7.50;4.20;;;12.70;99.90;;;;;;5060827;28;20526;-42
2022/05/14 00:34:51;;;;;;;6.50;4.17;;;12.70;99.90;;;;;;5070352;28;20562;-41
2022/05/14 00:37:17;;;;;;;9.07;4.10;;;12.70;99.90;;;;;;5070293;28;20188;-42
2022/05/14 00:39:43;;;;;;;5.77;4.93;;;12.70;99.90;;;;;;5073212;28;20197;-43
2022/05/14 00:42:10;;;;;;;5.90;4.13;;;12.70;99.90;;;;;;5087142;28;20262;-43
2022/05/14 00:44:35;;;;;;;4.13;3.77;;;12.70;99.90;;;;;;5090450;28;20478;-43
2022/05/14 00:47:10;;;;;;;7.60;4.43;;;12.60;99.90;;;;;;5063542;28;20473;-42
2022/05/14 00:49:36;;;;;;;5.80;4.53;;;12.70;99.90;;;;;;5068259;28;20341;-42
2022/05/14 00:52:03;;;;;;;6.87;4.53;;;12.60;99.90;;;;;;5069894;28;20496;-42
2022/05/14 00:54:46;;;;;;;6.70;3.97;;;12.60;99.90;;;;;;5068208;28;20467;-43
2022/05/14 00:57:17;;;;;;;4.67;4.20;;;12.60;99.90;;;;;;5058398;28;20499;-42
2022/05/14 00:59:43;;;;;;;8.00;4.17;;;12.50;99.90;;;;;;5069302;28;20426;-42
2022/05/14 01:02:09;;;;;;;5.80;4.33;;;12.60;99.90;;;;;;5066217;28;20452;-43
2022/05/14 01:04:38;;;;;;;6.13;4.60;;;12.60;99.90;;;;;;5069430;28;20434;-42
2022/05/14 01:07:14;;;;;;;6.03;4.53;;;12.60;99.90;;;;;;5069516;28;20251;-42
2022/05/14 01:09:43;;;;;;;7.90;4.73;;;12.60;99.90;;;;;;5069151;28;20848;-43
2022/05/14 01:12:11;;;;;;;4.30;3.90;;;12.60;99.90;;;;;;5069730;28;20428;-43
2022/05/14 01:14:36;;;;;;;5.93;4.20;;;12.50;99.90;;;;;;5069290;28;20915;-43
2022/05/14 01:17:02;;;;;;;8.67;4.70;;;12.50;99.90;;;;;;5056980;28;20447;-42
2022/05/14 01:19:28;;;;;;;7.90;5.00;;;12.50;99.90;;;;;;5066807;28;20192;-43
2022/05/14 01:22:22;;;;;;;6.87;4.40;;;12.50;99.90;;;;;;5068790;28;20431;-43
2022/05/14 01:27:53;;;;;;;6.37;4.77;;;12.40;99.90;;;;;;5055965;28;20427;-43
2022/05/14 01:30:18;;;;;;;6.10;4.57;;;12.40;99.90;;;;;;5068781;28;20438;-43
2022/05/14 01:33:04;;;;;;;5.80;5.10;;;12.30;99.90;;;;;;5082483;28;20185;-43
2022/05/14 01:35:32;;;;;;;5.60;4.93;;;12.40;99.90;;;;;;5065076;28;20698;-43
2022/05/14 01:37:57;;;;;;;9.93;5.10;;;12.30;99.90;;;;;;5068598;28;20430;-43
2022/05/14 01:40:23;;;;;;;5.57;4.60;;;12.40;99.90;;;;;;5077255;28;20828;-42
2022/05/14 01:42:49;;;;;;;5.93;4.47;;;12.40;99.90;;;;;;5082707;28;20195;-43
2022/05/14 01:45:14;;;;;;;9.67;5.40;;;12.30;99.90;;;;;;5070726;28;20275;-43
2022/05/14 01:47:40;;;;;;;7.30;5.40;;;12.30;99.90;;;;;;5056738;28;20206;-43
2022/05/14 01:50:06;;;;;;;12.00;5.60;;;12.20;99.90;;;;;;5068405;28;20200;-43
2022/05/14 01:52:32;;;;;;;6.10;5.50;;;12.20;99.90;;;;;;5069029;28;20547;-43
2022/05/14 01:54:57;;;;;;;7.73;5.20;;;12.20;99.90;;;;;;5068688;28;20459;-43
2022/05/14 01:57:23;;;;;;;8.60;5.60;;;12.10;99.90;;;;;;5068917;28;20809;-43
2022/05/14 01:59:49;;;;;;;6.10;5.40;;;12.20;99.90;;;;;;5068673;28;20259;-43
2022/05/14 02:02:14;;;;;;;8.30;5.80;;;12.20;99.90;;;;;;5058321;28;20200;-43
2022/05/14 02:04:40;;;;;;;9.73;5.43;;;12.30;99.90;;;;;;5065924;28;20267;-43
2022/05/14 02:07:05;;;;;;;6.57;5.40;;;12.30;99.90;;;;;;5068676;28;20341;-43
2022/05/14 02:09:31;;;;;;;8.63;5.23;;;12.30;99.90;;;;;;5067197;28;20193;-43
2022/05/14 02:11:57;;;;;;;9.50;6.07;;;12.30;99.90;;;;;;5067687;28;20652;-42
2022/05/14 02:14:22;;;;;;;7.73;6.33;;;12.30;99.90;;;;;;5070548;28;20245;-42
2022/05/14 02:16:48;;;;;;;9.33;6.50;;;12.20;99.90;;;;;;5062478;28;20217;-43
2022/05/14 02:19:13;;;;;;;8.13;5.57;;;12.30;99.90;;;;;;5066420;28;20204;-42
2022/05/14 02:21:39;;;;;;;9.40;6.30;;;12.30;99.90;;;;;;5068171;28;20189;-43
2022/05/14 02:24:05;;;;;;;8.43;5.80;;;12.30;99.90;;;;;;5068407;28;20201;-43
2022/05/14 02:26:32;;;;;;;10.40;5.90;;;12.20;99.90;;;;;;5068848;28;20267;-42
2022/05/14 02:28:58;;;;;;;10.00;6.37;;;12.20;99.90;;;;;;5068487;28;21009;-43
2022/05/14 02:31:23;;;;;;;8.83;5.50;;;12.10;99.90;;;;;;5064513;28;20535;-42
2022/05/14 02:33:49;;;;;;;8.20;5.80;;;12.10;99.90;;;;;;5062171;28;20209;-43
2022/05/14 02:36:15;;;;;;;8.83;6.20;;;12.30;99.90;;;;;;5068557;28;20277;-42
2022/05/14 02:38:41;;;;;;;11.80;6.10;;;12.20;99.90;;;;;;5069844;28;21149;-42
2022/05/14 02:41:08;;;;;;;9.27;5.80;;;12.20;99.90;;;;;;5064277;28;20177;-43
2022/05/14 02:43:35;;;;;;;10.13;6.00;;;12.20;99.90;;;;;;5065938;28;20509;-43
2022/05/14 02:46:01;;;;;;;10.07;6.30;;;12.10;99.90;;;;;;5067747;28;20427;-43
2022/05/14 02:48:27;;;;;;;8.17;6.70;;;12.20;99.90;;;;;;5066307;28;20465;-42
2022/05/14 02:50:52;;;;;;;8.63;6.33;;;12.30;99.90;;;;;;5071597;28;20423;-43
2022/05/14 02:53:18;;;;;;;7.73;5.53;;;12.40;99.90;;;;;;5071867;28;20201;-43
2022/05/14 02:55:44;;;;;;;9.57;6.00;;;12.50;99.90;;;;;;5087586;28;20193;-42
2022/05/14 02:58:09;;;;;;;11.30;6.87;;;12.60;99.90;;;;;;5072204;28;20299;-42
2022/05/14 03:00:35;;;;;;;9.83;5.43;;;12.50;99.90;;;;;;5071462;28;20196;-42
2022/05/14 03:03:01;;;;;;;8.77;5.97;;;12.60;99.90;;;;;;5060142;28;20211;-43
2022/05/14 03:05:27;;;;;;;6.00;5.37;;;12.60;99.90;;;;;;5071793;28;20663;-42
2022/05/14 03:07:53;;;;;;;7.23;4.97;;;12.50;99.90;;;;;;5071037;28;20199;-42
2022/05/14 03:10:19;;;;;;;7.20;5.53;;;12.60;99.90;;;;;;5071471;28;20899;-43
2022/05/14 03:12:45;;;;;;;9.10;5.53;;;12.60;99.90;;;;;;5072155;28;20924;-43
2022/05/14 03:15:12;;;;;;;8.70;5.67;;;12.60;99.90;;;;;;5071632;28;20507;-42
2022/05/14 03:17:38;;;;;;;9.33;5.90;;;12.60;99.90;;;;;;5062946;28;20962;-43
2022/05/14 03:20:06;;;;;;;7.80;5.30;;;12.60;99.90;;;;;;5070949;28;20419;-43
2022/05/14 03:22:36;;;;;;;9.70;6.40;;;12.60;99.90;;;;;;5071457;28;20427;-43
2022/05/14 03:25:04;;;;;;;6.70;5.53;;;12.60;99.90;;;;;;5070764;28;20435;-43
2022/05/14 03:27:29;;;;;;;8.17;5.40;;;12.70;99.90;;;;;;5071781;28;20508;-43
2022/05/14 03:29:56;;;;;;;7.90;5.57;;;12.60;99.90;;;;;;5071093;28;20476;-42
2022/05/14 03:32:24;;;;;;;8.80;5.53;;;12.60;99.90;;;;;;5066842;28;20587;-43
2022/05/14 03:34:50;;;;;;;4.73;4.33;;;12.70;99.90;;;;;;5069843;28;20467;-42
2022/05/14 03:37:16;;;;;;;6.70;5.33;;;12.60;99.90;;;;;;5071297;28;20448;-42
2022/05/14 03:39:41;;;;;;;6.93;5.17;;;12.60;99.90;;;;;;5081316;28;20752;-42
2022/05/14 03:42:07;;;;;;;11.27;5.70;;;12.70;99.90;;;;;;5089253;28;20271;-42
2022/05/14 03:44:33;;;;;;;6.07;4.80;;;12.60;99.90;;;;;;5076227;28;20193;-43
2022/05/14 03:46:59;;;;;;;6.63;5.10;;;12.50;99.90;;;;;;5069669;28;20436;-43
2022/05/14 03:49:25;;;;;;;7.60;4.67;;;12.50;99.90;;;;;;5062228;28;20247;-42
2022/05/14 03:51:52;;;;;;;6.03;5.37;;;12.50;99.90;;;;;;5070716;28;20511;-43
2022/05/14 03:54:17;;;;;;;9.27;4.77;;;12.40;99.90;;;;;;5071187;28;20303;-42
2022/05/14 03:56:43;;;;;;;8.03;5.37;;;12.40;99.90;;;;;;5069554;28;20585;-43
2022/05/14 03:59:09;;;;;;;11.23;5.37;;;12.40;99.90;;;;;;5069817;28;20193;-42
2022/05/14 04:01:36;;;;;;;5.47;4.40;;;12.30;99.90;;;;;;5069717;28;20847;-42
2022/05/14 04:04:01;;;;;;;9.97;4.80;;;12.40;99.90;;;;;;5054338;28;20953;-43
2022/05/14 04:06:28;;;;;;;6.20;4.83;;;12.40;99.90;;;;;;5075133;28;20431;-43
2022/05/14 04:08:53;;;;;;;4.97;4.30;;;12.40;99.90;;;;;;5071847;28;20193;-43
2022/05/14 04:11:19;;;;;;;6.67;4.37;;;12.40;99.90;;;;;;5070132;28;20441;-43
2022/05/14 04:13:45;;;;;;;11.83;4.93;;;12.40;99.90;;;;;;5070768;28;20240;-42
2022/05/14 04:16:11;;;;;;;6.33;4.53;;;12.40;99.90;;;;;;5070721;28;20212;-42
2022/05/14 04:18:37;;;;;;;6.80;4.10;;;12.40;99.90;;;;;;5057563;28;20427;-43
2022/05/14 04:21:03;;;;;;;5.17;3.73;;;12.40;99.90;;;;;;5069876;28;20498;-43
2022/05/14 04:23:30;;;;;;;10.20;4.47;;;12.40;99.90;;;;;;5086133;28;20529;-42
2022/05/14 04:25:57;;;;;;;4.77;3.60;;;12.40;99.90;;;;;;5070537;28;20197;-43
2022/05/14 04:28:24;;;;;;;5.63;3.43;;;12.40;99.90;;;;;;5070610;28;20854;-43
2022/05/14 04:30:49;;;;;;;4.50;3.83;;;12.40;99.90;;;;;;5069183;28;20459;-41
2022/05/14 04:33:17;;;;;;;4.43;2.83;;;12.40;99.90;;;;;;5057241;28;20532;-41
2022/05/14 04:35:43;;;;;;;6.53;3.70;;;12.40;99.90;;;;;;5068876;28;20193;-43
2022/05/14 04:38:09;;;;;;;5.47;3.50;;;12.50;99.90;;;;;;5070188;28;20427;-43
2022/05/14 04:40:35;;;;;;;5.47;3.07;;;12.50;99.90;;;;;;5086044;28;20816;-42
2022/05/14 04:43:04;;;;;;;5.10;3.30;;;12.50;99.90;;;;;;5081320;28;20188;-42
2022/05/14 04:45:29;;;;;;;4.20;3.23;;;12.60;99.90;;;;;;5090465;28;20464;-43
2022/05/14 04:47:55;;;;;;;8.70;4.00;;;12.60;99.90;;;;;;5071736;28;20539;-40
2022/05/14 04:50:21;;;;;;;4.90;3.03;;;12.50;99.90;;;;;;5068793;28;20246;-43
2022/05/14 04:52:47;;;;;;;6.97;3.70;;;12.50;99.90;;;;;;5062149;28;20468;-41
2022/05/14 04:55:13;;;;;;;4.23;3.27;;;12.60;99.90;;;;;;5069548;28;20213;-43
2022/05/14 04:57:41;;;;;;;4.77;3.27;;;12.70;99.90;;;;;;5065425;28;20207;-41
2022/05/14 05:00:08;;;;;;;4.87;3.23;;;12.70;99.90;;;;;;5068982;28;20469;-42
2022/05/14 05:05:18;;;;;;;3.57;2.73;;;12.80;99.90;;;;;;5062182;28;20438;-42
2022/05/14 05:07:46;;;;;;;4.20;2.70;;;12.90;99.90;;;;;;5071743;28;20423;-42
2022/05/14 05:10:12;;;;;;;5.43;2.70;;;13.00;99.90;;;;;;5089453;28;20683;-42
2022/05/14 05:12:37;;;;;;;5.83;3.07;;;13.00;99.90;;;;;;5069410;28;20439;-42
2022/05/14 05:15:04;;;;;;;9.03;3.37;;;13.00;99.90;;;;;;5069494;28;20528;-43
2022/05/14 05:17:29;;;;;;;6.50;3.10;;;13.10;99.90;;;;;;5066416;28;20196;-42
2022/05/14 05:19:55;;;;;;;10.20;3.77;;;13.00;99.90;;;;;;5064066;28;20427;-43
2022/05/14 05:22:21;;;;;;;7.10;3.27;;;12.70;99.90;;;;;;5068804;28;20288;-43
2022/05/14 05:24:46;;;;;;;6.20;2.97;;;12.70;99.90;;;;;;5069448;28;20701;-42
2022/05/14 05:27:12;;;;;;;6.63;3.60;;;12.70;99.90;;;;;;5069142;28;20267;-42
2022/05/14 05:29:38;;;;;;;6.23;3.20;;;12.80;99.90;;;;;;5068797;28;20192;-42
2022/05/14 05:32:04;;;;;;;11.57;3.63;;;12.90;99.90;;;;;;5069102;28;20196;-43
2022/05/14 05:34:29;;;;;;;7.70;3.17;;;12.90;99.90;;;;;;5058242;28;20212;-42
2022/05/14 05:36:55;;;;;;;5.70;3.13;;;13.10;99.90;;;;;;5069070;28;21083;-43
2022/05/14 05:39:21;;;;;;;5.70;3.17;;;13.20;99.90;;;;;;5077609;28;20189;-42
2022/05/14 05:41:47;;;;;;;4.83;3.20;;;13.30;99.90;;;;;;5079989;28;20199;-42
2022/05/14 05:44:13;;;;;;;7.20;3.60;;;13.30;99.90;;;;;;5089306;28;20204;-42
2022/05/14 05:46:39;;;;;;;5.07;4.03;;;13.40;99.90;;;;;;5085713;28;20515;-42
2022/05/14 05:49:05;;;;;;;5.90;3.77;;;13.30;99.90;;;;;;5062752;28;20961;-42
2022/05/14 05:51:31;;;;;;;8.73;3.97;;;13.30;99.90;;;;;;5068126;28;20514;-42
2022/05/14 05:56:59;;;;;;;6.53;3.63;;;13.50;99.90;;;;;;5066761;28;20460;-43
2022/05/14 05:59:27;;;;;;;5.60;3.60;;;13.70;99.90;;;;;;5072921;28;20822;-42
2022/05/14 06:01:53;;;;;;;6.40;3.47;;;13.90;99.90;;;;;;5068146;28;20434;-42
2022/05/14 06:04:20;;;;;;;5.33;3.23;;;14.10;99.90;;;;;;5058430;28;20484;-43
2022/05/14 06:06:46;;;;;;;4.80;3.47;;;14.10;99.90;;;;;;5065872;28;20446;-41
2022/05/14 06:09:15;;;;;;;9.17;4.57;;;14.20;99.90;;;;;;5076231;28;20962;-42
2022/05/14 06:11:42;;;;;;;7.57;4.73;;;14.20;99.90;;;;;;5066513;28;20431;-41
2022/05/14 06:14:08;;;;;;;9.13;5.17;;;14.40;99.90;;;;;;5070214;28;20483;-43
2022/05/14 06:16:34;;;;;;;7.67;4.50;;;14.60;99.90;;;;;;5068771;28;20415;-43
2022/05/14 06:18:59;;;;;;;8.20;3.93;;;14.80;99.90;;;;;;5055833;28;20447;-42
2022/05/14 06:21:27;;;;;;;5.10;3.57;;;15.10;99.90;;;;;;5065362;28;20839;-43
2022/05/14 06:23:54;;;;;;;11.00;4.80;;;15.30;99.90;;;;;;5060284;28;20274;-43
2022/05/14 06:26:20;;;;;;;7.90;4.53;;;15.50;99.90;;;;;;5072932;28;20569;-42
2022/05/14 06:28:45;;;;;;;6.67;4.07;;;15.60;99.90;;;;;;5071931;28;20431;-41
2022/05/14 06:31:11;;;;;;;7.73;3.60;;;15.60;99.90;;;;;;5072290;28;20781;-42
2022/05/14 06:33:37;;;;;;;8.90;4.10;;;15.70;99.90;;;;;;5065003;28;20467;-42
2022/05/14 06:36:04;;;;;;;6.30;4.10;;;15.70;99.90;;;;;;5069687;28;20434;-42
2022/05/14 06:38:29;;;;;;;11.00;3.97;;;15.60;99.90;;;;;;5073324;28;20287;-42
2022/05/14 06:40:55;;;;;;;8.83;4.30;;;15.60;99.90;;;;;;5075625;28;20426;-42
2022/05/14 06:43:21;;;;;;;7.53;4.90;;;15.60;99.90;;;;;;5084167;28;20185;-43
2022/05/14 06:45:47;;;;;;;12.13;4.40;;;15.70;99.90;;;;;;5075876;28;20524;-42
2022/05/14 06:48:13;;;;;;;9.10;4.30;;;15.80;99.90;;;;;;5075425;28;20476;-42
2022/05/14 06:50:45;;;;;;;6.23;4.13;;;15.80;99.90;;;;;;5078308;28;20188;-43
2022/05/14 06:53:13;;;;;;;7.07;4.53;;;15.80;99.90;;;;;;5077300;28;20506;-42
2022/05/14 06:55:41;;;;;;;8.13;5.00;;;16.00;99.90;;;;;;5073659;28;20419;-43
2022/05/14 06:58:17;;;;;;;6.47;4.40;;;16.20;99.90;;;;;;5076450;28;20484;-43
2022/05/14 07:00:44;;;;;;;14.53;6.33;;;16.30;99.90;;;;;;5091951;28;20414;-42
2022/05/14 07:08:39;;;;;;;6.60;4.00;;;16.30;99.90;;;;;;5071981;28;20446;-42
2022/05/14 07:11:06;;;;;;;6.60;4.70;;;16.30;99.90;;;;;;5071344;28;20887;-42
2022/05/14 07:13:32;;;;;;;5.37;4.83;;;16.40;99.90;;;;;;5074970;28;20455;-43
2022/05/14 07:15:58;;;;;;;10.60;5.13;;;16.60;99.90;;;;;;5088332;28;20861;-42
2022/05/14 07:18:23;;;;;;;6.00;5.10;;;16.80;99.90;;;;;;5085906;28;20687;-43
2022/05/14 07:20:49;;;;;;;7.33;5.00;;;16.70;99.90;;;;;;5070379;28;20199;-42
2022/05/14 07:23:15;;;;;;;7.77;4.90;;;16.70;99.90;;;;;;5071996;28;20184;-42
2022/05/14 07:25:40;;;;;;;14.63;5.43;;;16.70;99.90;;;;;;5071497;28;20181;-42
2022/05/14 07:28:08;;;;;;;8.63;4.30;;;16.70;99.90;;;;;;5071595;28;20189;-42
2022/05/14 07:30:35;;;;;;;7.20;3.90;;;16.80;99.90;;;;;;5070022;28;20664;-42
2022/05/14 07:33:00;;;;;;;5.80;3.93;;;17.00;99.90;;;;;;5083326;28;20418;-42
2022/05/14 07:35:27;;;;;;;6.93;4.77;;;17.20;99.90;;;;;;5058559;28;20482;-42
2022/05/14 07:37:57;;;;;;;8.47;4.00;;;17.30;99.90;;;;;;5086817;28;20598;-42
2022/05/14 07:40:26;;;;;;;7.47;4.13;;;17.40;99.90;;;;;;5087552;28;20414;-42
2022/05/14 07:43:05;;;;;;;7.00;4.43;;;17.50;99.90;;;;;;5091177;28;20492;-42
2022/05/14 07:45:43;;;;;;;8.97;4.37;;;17.40;99.90;;;;;;5071766;28;20510;-42
2022/05/14 07:48:22;;;;;;;12.23;4.60;;;17.20;99.90;;;;;;5069968;28;20419;-42
2022/05/14 07:50:48;;;;;;;7.07;4.40;;;16.90;99.90;;;;;;5061621;28;20930;-42
2022/05/14 07:53:16;;;;;;;6.40;4.60;;;17.00;99.90;;;;;;5070735;28;20427;-42
2022/05/14 07:55:43;;;;;;;10.90;3.90;;;17.10;99.90;;;;;;5071354;28;20477;-42
2022/05/14 07:58:10;;;;;;;7.73;4.57;;;17.20;99.90;;;;;;5071307;28;21243;-42
2022/05/14 08:00:36;;;;;;;6.30;4.10;;;17.10;99.90;;;;;;5070643;28;20813;-43
2022/05/14 08:03:02;;;;;;;6.33;3.70;;;17.10;99.90;;;;;;5070928;28;20434;-43
2022/05/14 08:05:28;;;;;;;8.37;4.10;;;17.20;99.90;;;;;;5062549;28;20462;-42
2022/05/14 08:07:54;;;;;;;7.47;3.77;;;17.20;99.90;;;;;;5066554;28;20871;-41
2022/05/14 08:10:20;;;;;;;8.20;4.57;;;17.10;99.90;;;;;;5067766;28;20423;-43
2022/05/14 08:12:50;;;;;;;8.07;3.83;;;17.00;99.90;;;;;;5068444;28;20200;-42
2022/05/14 08:15:17;;;;;;;12.70;4.90;;;16.80;99.90;;;;;;5070525;28;20205;-42
2022/05/14 08:17:43;;;;;;;6.00;4.00;;;16.80;99.90;;;;;;5070561;28;20511;-43
2022/05/14 08:20:10;;;;;;;9.53;4.03;;;16.70;99.90;;;;;;5061082;28;20427;-43
2022/05/14 08:25:21;;;;;;;7.93;4.40;;;16.80;99.90;;;;;;5071038;28;20433;-42
2022/05/14 08:27:47;;;;;;;9.00;5.10;;;16.90;99.90;;;;;;5070517;28;20781;-42
2022/05/14 08:30:42;;;;;;;6.37;4.80;;;16.80;99.90;;;;;;5050952;28;20436;-42
2022/05/14 08:33:08;;;;;;;7.70;4.67;;;16.90;99.90;;;;;;5061408;28;20431;-43
2022/05/14 08:35:35;;;;;;;10.80;4.50;;;17.00;99.90;;;;;;5056755;28;20471;-42
2022/05/14 08:38:00;;;;;;;7.23;4.80;;;17.10;99.90;;;;;;5070189;28;20535;-42
2022/05/14 08:40:41;;;;;;;7.67;4.00;;;17.20;99.90;;;;;;5086900;28;20426;-42
2022/05/14 08:43:15;;;;;;;6.67;4.10;;;17.30;99.90;;;;;;5081921;28;20260;-42
2022/05/14 08:45:41;;;;;;;6.80;4.43;;;17.40;99.90;;;;;;5090507;28;20790;-42
2022/05/14 08:48:15;;;;;;;6.97;4.83;;;17.50;99.90;;;;;;5076159;28;20428;-43
2022/05/14 08:50:43;;;;;;;12.73;4.70;;;17.40;99.90;;;;;;5054307;28;20878;-42
2022/05/14 08:53:12;;;;;;;5.80;4.30;;;17.40;99.90;;;;;;5070259;28;20424;-43
2022/05/14 08:55:46;;;;;;;6.00;4.57;;;17.60;99.90;;;;;;5069609;28;20466;-42
2022/05/14 08:58:40;;;;;;;8.97;4.20;;;17.60;99.90;;;;;;5070233;28;20442;-42
2022/05/14 09:01:07;;;;;;;7.20;4.77;;;17.60;99.90;;;;;;5053674;28;20514;-42
2022/05/14 09:03:33;;;;;;;9.60;5.60;;;17.60;99.90;;;;;;5070103;28;20473;-42
2022/05/14 09:05:59;;;;;;;7.07;4.27;;;17.60;99.90;;;;;;5061525;28;20427;-42
2022/05/14 09:08:25;;;;;;;8.70;4.20;;;17.70;99.90;;;;;;5068438;28;20188;-42
2022/05/14 09:11:06;;;;;;;8.00;4.60;;;17.90;99.90;;;;;;5067271;28;20423;-42
2022/05/14 09:13:43;;;;;;;10.23;4.50;;;18.00;99.90;;;;;;5069303;28;20427;-41
2022/05/14 09:16:37;;;;;;;9.97;4.70;;;18.20;99.90;;;;;;5067380;28;20415;-42
2022/05/14 09:19:14;;;;;;;8.10;4.10;;;18.40;99.90;;;;;;5067602;28;20411;-43
2022/05/14 09:21:53;;;;;;;6.83;4.53;;;18.40;99.90;;;;;;5064332;28;20422;-42
2022/05/14 09:24:25;;;;;;;6.77;5.00;;;18.60;99.90;;;;;;5068871;28;20423;-42
2022/05/14 09:27:06;;;;;;;7.33;4.40;;;18.70;99.90;;;;;;5068478;28;20505;-42
2022/05/14 09:29:42;;;;;;;5.07;3.57;;;18.80;99.90;;;;;;5068455;28;20453;-42
2022/05/14 09:32:17;;;;;;;6.97;3.17;;;19.10;99.90;;;;;;5068770;28;20941;-42
2022/05/14 09:34:43;;;;;;;5.03;3.60;;;19.30;99.90;;;;;;5063334;28;20463;-42
2022/05/14 09:37:12;;;;;;;8.73;3.53;;;19.40;99.90;;;;;;5065044;28;20528;-41
2022/05/14 09:39:39;;;;;;;7.27;3.30;;;19.50;99.90;;;;;;5078366;28;20422;-42
2022/05/14 09:42:06;;;;;;;6.27;3.60;;;19.70;99.90;;;;;;5088938;28;20470;-43
2022/05/14 09:44:46;;;;;;;6.07;4.33;;;19.80;98.80;;;;;;5083166;28;20422;-43
2022/05/14 09:47:27;;;;;;;7.27;3.90;;;19.80;98.30;;;;;;5082075;28;20423;-42
2022/05/14 09:50:07;;;;;;;5.87;3.20;;;19.90;98.50;;;;;;5064290;28;20569;-42
2022/05/14 09:52:35;;;;;;;8.10;4.10;;;20.00;98.90;;;;;;5064404;28;20910;-42
2022/05/14 09:55:04;;;;;;;7.90;4.10;;;20.20;98.00;;;;;;5068980;28;20504;-42
2022/05/14 09:57:33;;;;;;;8.83;4.07;;;20.10;98.00;;;;;;5084330;28;20447;-43
2022/05/14 10:00:07;;;;;;;8.33;3.27;;;20.20;97.90;;;;;;5067843;28;20420;-42
2022/05/14 10:02:52;;;;;;;7.10;3.20;;;20.30;98.20;;;;;;5068579;28;20446;-42
2022/05/14 10:05:40;;;;;;;7.60;3.70;;;20.30;98.00;;;;;;5062637;28;20522;-42
2022/05/14 10:08:23;;;;;;;5.63;3.20;;;20.50;98.70;;;;;;5065659;28;20411;-42
2022/05/14 10:10:56;;;;;;;7.27;3.63;;;20.70;99.50;;;;;;5068053;28;20411;-42
2022/05/14 10:13:34;;;;;;;6.83;3.10;;;20.50;97.60;;;;;;5069043;28;20425;-42
2022/05/14 10:16:06;;;;;;;4.83;3.23;;;20.60;97.40;;;;;;5068922;28;20459;-42
2022/05/14 10:18:51;;;;;;;11.17;3.77;;;20.70;97.50;;;;;;5068803;28;20502;-42
2022/05/14 10:21:28;;;;;;;9.83;3.73;;;20.90;98.10;;;;;;5058168;28;20450;-42
2022/05/14 10:27:06;;;;;;;7.17;3.10;;;21.00;97.40;;;;;;5084108;28;20462;-43
2022/05/14 10:29:45;;;;;;;6.80;3.60;;;21.20;97.40;;;;;;5067431;28;20937;-42
2022/05/14 10:32:17;;;;;;;7.37;4.00;;;21.20;97.20;;;;;;5068638;28;20423;-43
2022/05/14 10:35:06;;;;;;;8.03;3.40;;;21.00;95.90;;;;;;5066790;28;20470;-42
2022/05/14 10:37:47;;;;;;;8.33;3.43;;;20.80;96.60;;;;;;5056532;28;20415;-43
2022/05/14 10:40:36;;;;;;;6.87;3.60;;;20.90;97.20;;;;;;5066340;28;20773;-42
2022/05/14 10:43:35;;;;;;;4.20;3.23;;;21.10;98.80;;;;;;5068675;28;20427;-42
2022/05/14 10:46:07;;;;;;;9.63;4.00;;;21.40;95.50;;;;;;5068484;28;20788;-43
2022/05/14 10:48:35;;;;;;;6.53;3.30;;;21.50;96.10;;;;;;5068489;28;20510;-42
2022/05/14 10:51:07;;;;;;;10.43;3.97;;;21.50;96.50;;;;;;5056871;28;20445;-43
2022/05/14 10:53:33;;;;;;;7.17;3.50;;;21.70;96.50;;;;;;5085142;28;20431;-42
2022/05/14 10:56:01;;;;;;;7.83;4.00;;;21.50;94.90;;;;;;5068192;28;20455;-43
2022/05/14 10:58:39;;;;;;;9.43;4.63;;;21.40;94.80;;;;;;5068527;28;20476;-42
2022/05/14 11:01:26;;;;;;;9.00;4.43;;;21.30;95.20;;;;;;5066364;28;20430;-43
2022/05/14 11:03:58;;;;;;;7.10;3.53;;;21.40;95.50;;;;;;5068617;28;20415;-42
2022/05/14 11:06:30;;;;;;;8.73;3.77;;;21.50;96.10;;;;;;5059155;28;20445;-42
2022/05/14 11:08:56;;;;;;;7.97;3.67;;;21.50;95.70;;;;;;5066680;28;21107;-42
2022/05/14 11:11:27;;;;;;;10.33;4.13;;;21.70;95.30;;;;;;5069032;28;20488;-42
2022/05/14 11:14:03;;;;;;;9.67;5.20;;;21.90;95.30;;;;;;5071865;28;20250;-42
2022/05/14 11:16:58;;;;;;;5.30;3.53;;;21.90;95.40;;;;;;5058809;28;20481;-42
2022/05/14 11:19:29;;;;;;;6.70;3.87;;;21.90;94.40;;;;;;5062472;28;20486;-42
2022/05/14 11:21:57;;;;;;;6.93;4.30;;;22.00;93.50;;;;;;5064758;28;20475;-42
2022/05/14 11:24:34;;;;;;;8.27;4.10;;;22.00;94.00;;;;;;5071962;28;20949;-42
2022/05/14 11:26:59;;;;;;;6.10;4.00;;;21.70;93.30;;;;;;5071597;28;20430;-43
2022/05/14 11:29:33;;;;;;;10.17;4.33;;;21.60;93.60;;;;;;5086321;28;20435;-42
2022/05/14 11:32:05;;;;;;;6.00;3.60;;;21.70;94.20;;;;;;5086456;28;20604;-43
2022/05/14 11:34:31;;;;;;;5.07;3.60;;;21.80;95.70;;;;;;5071748;28;20697;-43
2022/05/14 11:36:59;;;;;;;9.97;4.10;;;21.70;94.70;;;;;;5060972;28;20821;-42
2022/05/14 11:39:31;;;;;;;8.47;4.47;;;21.60;95.40;;;;;;5072553;28;20419;-42
2022/05/14 11:42:32;;;;;;;13.83;5.10;;;21.50;95.20;;;;;;5070699;28;20637;-43
2022/05/14 11:45:18;;;;;;;7.67;3.93;;;21.60;95.80;;;;;;5011796;28;21251;-43
2022/05/14 11:48:11;;;;;;;7.43;5.10;;;21.70;94.90;;;;;;5068366;28;20431;-43
2022/05/14 11:50:48;;;;;;;7.73;3.90;;;21.70;94.80;;;;;;5065464;28;20481;-42
2022/05/14 11:53:13;;;;;;;10.50;4.30;;;21.60;94.50;;;;;;5069612;28;20542;-42
2022/05/14 11:55:52;;;;;;;7.10;4.00;;;21.80;95.90;;;;;;5071194;28;20466;-43
2022/05/14 11:58:44;;;;;;;6.10;3.80;;;21.80;95.30;;;;;;5069849;28;20197;-42
2022/05/14 12:01:16;;;;;;;11.10;4.47;;;21.90;95.70;;;;;;5070316;28;20454;-43
2022/05/14 12:03:44;;;;;;;7.37;3.50;;;22.00;93.80;;;;;;5070977;28;20753;-43
2022/05/14 12:06:40;;;;;;;6.90;4.37;;;21.90;94.00;;;;;;5063553;28;20444;-42
2022/05/14 12:09:24;;;;;;;10.07;4.80;;;22.00;94.30;;;;;;5065072;28;20434;-42
2022/05/14 12:12:05;;;;;;;7.57;4.67;;;22.00;94.00;;;;;;5058565;28;20468;-42
2022/05/14 12:14:33;;;;;;;6.40;3.80;;;22.10;94.00;;;;;;5070967;28;20469;-42
2022/05/14 12:17:02;;;;;;;5.30;4.30;;;22.30;94.40;;;;;;5070944;28;20427;-43
2022/05/14 12:19:30;;;;;;;5.73;4.20;;;22.30;94.00;;;;;;5070775;28;20423;-42
2022/05/14 12:22:03;;;;;;;7.00;4.37;;;22.30;93.60;;;;;;5058720;28;20446;-43
2022/05/14 12:24:40;;;;;;;11.23;5.80;;;22.30;92.30;;;;;;5070529;28;20522;-43
2022/05/14 12:27:17;;;;;;;7.63;4.53;;;22.20;92.60;;;;;;5070646;28;20480;-42
2022/05/14 12:29:55;;;;;;;5.83;4.20;;;22.30;94.40;;;;;;5069168;28;20445;-43
2022/05/14 12:35:26;;;;;;;11.07;5.63;;;22.60;94.20;;;;;;5069300;28;20466;-43
2022/05/14 12:37:55;;;;;;;9.57;6.50;;;22.50;91.90;;;;;;5061614;28;20428;-43
2022/05/14 12:40:29;;;;;;;8.33;6.50;;;22.30;92.00;;;;;;5071403;28;20511;-43
2022/05/14 12:42:57;;;;;;;12.20;5.70;;;22.30;93.40;;;;;;5070169;28;20427;-43
2022/05/14 12:46:01;;;;;;;10.17;5.10;;;22.50;94.50;;;;;;5070206;28;20829;-43
2022/05/14 12:48:26;;;;;;;10.13;6.67;;;22.60;92.30;;;;;;5063222;28;20518;-42
2022/05/14 12:50:57;;;;;;;8.33;6.20;;;22.50;91.80;;;;;;5064768;28;20954;-43
2022/05/14 12:53:34;;;;;;;8.60;5.30;;;22.50;92.40;;;;;;5065453;28;20190;-43
2022/05/14 12:56:01;;;;;;;9.73;5.50;;;22.60;92.90;;;;;;5070025;28;21231;-43
2022/05/14 12:58:27;;;;;;;7.00;5.70;;;22.60;93.00;;;;;;5070237;28;20526;-42
2022/05/14 13:00:53;;;;;;;7.80;5.60;;;22.70;92.50;;;;;;5069267;28;20962;-43
2022/05/14 13:03:19;;;;;;;9.40;6.73;;;22.70;91.20;;;;;;5085335;28;20446;-43
2022/05/14 13:05:54;;;;;;;8.67;6.40;;;22.40;90.40;;;;;;5066882;28;20651;-43
2022/05/14 13:08:23;;;;;;;7.37;5.80;;;22.10;89.20;;;;;;5069465;28;20837;-43
2022/05/14 13:10:52;;;;;;;6.13;5.03;;;22.20;91.30;;;;;;5069092;28;20427;-43
2022/05/14 13:13:28;;;;;;;7.73;5.30;;;22.40;91.70;;;;;;5069873;28;20442;-43
2022/05/14 13:15:55;;;;;;;8.33;5.50;;;22.60;91.50;;;;;;5068243;28;20449;-43
2022/05/14 13:18:28;;;;;;;7.00;5.57;;;22.60;90.30;;;;;;5069558;28;21411;-43
2022/05/14 13:21:04;;;;;;;6.57;5.80;;;22.70;92.10;;;;;;5065170;28;20451;-43
2022/05/14 13:23:30;;;;;;;6.70;5.20;;;22.80;92.30;;;;;;5065590;28;20445;-43